createdAt,value
2022-11-13T00:00:34.023Z,98981.63
2022-11-13T00:03:20.945Z,98970.44
2022-11-13T00:06:10.856Z,98976.56
2022-11-13T00:08:57.800Z,98960.13
2022-11-13T00:11:44.687Z,98964.41
2022-11-13T00:14:31.796Z,98973.16
2022-11-13T00:17:18.516Z,98943.94
2022-11-13T00:20:06.119Z,98947.53
2022-11-13T00:22:54.529Z,98969.09
2022-11-13T00:25:41.315Z,98976.13
2022-11-13T00:28:28.586Z,98966.81
2022-11-13T00:31:17.142Z,98977.91
2022-11-13T00:37:11.641Z,98973.66
2022-11-13T00:40:00.002Z,98978.84
2022-11-13T00:42:46.828Z,98956.53
2022-11-13T00:45:34.109Z,98947.72
2022-11-13T00:48:21.576Z,98962.44
2022-11-13T00:51:08.382Z,98977.91
2022-11-13T00:53:55.453Z,98977.09
2022-11-13T00:56:44.085Z,98977.03
2022-11-13T00:59:30.826Z,98975.28
2022-11-13T01:02:17.884Z,98958.00
2022-11-13T01:05:05.958Z,98976.13
2022-11-13T01:07:53.134Z,98983.06
2022-11-13T01:10:42.283Z,98947.88
2022-11-13T01:13:30.631Z,98962.44
2022-11-13T01:16:19.890Z,98964.22
2022-11-13T01:19:09.370Z,98981.50
2022-11-13T01:21:56.232Z,98967.91
2022-11-13T01:24:43.012Z,98981.56
2022-11-13T01:27:31.746Z,98901.78
2022-11-13T01:30:20.704Z,98991.09
2022-11-13T01:33:07.686Z,98961.03
2022-11-13T01:35:54.696Z,98979.22
2022-11-13T01:38:41.885Z,98967.31
2022-11-13T01:41:31.017Z,98936.78
2022-11-13T01:44:19.241Z,98963.19
2022-11-13T01:47:07.521Z,98952.88
2022-11-13T01:49:56.894Z,98954.63
2022-11-13T01:52:44.104Z,98945.38
2022-11-13T01:55:31.397Z,98959.78
2022-11-13T01:58:18.000Z,98960.63
2022-11-13T02:01:05.066Z,98939.28
2022-11-13T02:03:53.687Z,98969.31
2022-11-13T02:06:43.525Z,98963.22
2022-11-13T02:09:32.370Z,98961.53
2022-11-13T02:12:23.397Z,98947.72
2022-11-13T02:15:33.610Z,98941.78
2022-11-13T02:18:22.161Z,98928.22
2022-11-13T02:21:24.306Z,98934.88
2022-11-13T02:24:32.749Z,98949.47
2022-11-13T02:27:31.882Z,98894.63
2022-11-13T02:30:25.302Z,98939.38
2022-11-13T02:33:26.192Z,98938.56
2022-11-13T02:36:13.532Z,98916.47
2022-11-13T02:39:02.819Z,98938.81
2022-11-13T02:41:51.267Z,98927.09
2022-11-13T02:44:37.894Z,98944.16
2022-11-13T02:47:24.843Z,98921.88
2022-11-13T02:53:25.987Z,98929.72
2022-11-13T02:56:17.824Z,98928.94
2022-11-13T02:59:10.276Z,98910.84
2022-11-13T03:02:01.499Z,98905.66
2022-11-13T03:05:11.393Z,98900.59
2022-11-13T03:07:55.712Z,98906.75
2022-11-13T03:10:45.314Z,98911.97
2022-11-13T03:13:35.060Z,98903.34
2022-11-13T03:16:34.828Z,98894.69
2022-11-13T03:19:22.957Z,98917.00
2022-11-13T03:22:11.126Z,98886.09
2022-11-13T03:25:02.861Z,98926.38
2022-11-13T03:27:54.665Z,98909.09
2022-11-13T03:30:52.144Z,98904.94
2022-11-13T03:33:40.629Z,98915.97
2022-11-13T03:36:28.097Z,98922.00
2022-11-13T03:39:15.713Z,98909.16
2022-11-13T03:42:04.464Z,98910.81
2022-11-13T03:44:58.928Z,98907.34
2022-11-13T03:47:45.979Z,98916.16
2022-11-13T03:50:35.963Z,98924.94
2022-11-13T03:53:27.216Z,98912.22
2022-11-13T03:56:16.145Z,98948.16
2022-11-13T03:59:10.707Z,98923.31
2022-11-13T04:02:03.299Z,98903.81
2022-11-13T04:04:52.468Z,98927.91
2022-11-13T04:07:41.092Z,98920.31
2022-11-13T04:10:28.204Z,98894.56
2022-11-13T04:13:15.100Z,98915.19
2022-11-13T04:16:02.197Z,98936.66
2022-11-13T04:18:51.675Z,98949.47
2022-11-13T04:21:38.655Z,98955.50
2022-11-13T04:24:27.109Z,98935.81
2022-11-13T04:27:14.041Z,98940.94
2022-11-13T04:30:01.059Z,98958.81
2022-11-13T04:32:48.243Z,98977.78
2022-11-13T04:35:35.789Z,98968.34
2022-11-13T04:38:23.071Z,98966.72
2022-11-13T04:41:31.378Z,98954.84
2022-11-13T04:44:18.653Z,98957.47
2022-11-13T04:47:05.448Z,98960.03
2022-11-13T04:49:52.568Z,98952.25
2022-11-13T04:52:39.312Z,98961.75
2022-11-13T04:55:25.880Z,98964.38
2022-11-13T04:58:13.982Z,98940.25
2022-11-13T05:01:01.138Z,98960.88
2022-11-13T05:03:48.198Z,98947.13
2022-11-13T05:06:34.773Z,98938.47
2022-11-13T05:09:21.402Z,98961.69
2022-11-13T05:12:08.924Z,98974.56
2022-11-13T05:14:57.378Z,98967.78
2022-11-13T05:17:44.156Z,98969.44
2022-11-13T05:20:31.376Z,98982.31
2022-11-13T05:23:18.089Z,98990.03
2022-11-13T05:26:06.693Z,99004.72
2022-11-13T05:28:53.444Z,98997.88
2022-11-13T05:31:41.367Z,98994.44
2022-11-13T05:34:28.207Z,98989.38
2022-11-13T05:37:14.693Z,98988.53
2022-11-13T05:40:01.356Z,98979.91
2022-11-13T05:42:48.307Z,99001.31
2022-11-13T05:45:35.363Z,98975.56
2022-11-13T05:48:23.929Z,99004.69
2022-11-13T05:51:12.385Z,98969.56
2022-11-13T05:54:02.757Z,99000.31
2022-11-13T05:56:49.412Z,99026.09
2022-11-13T05:59:36.070Z,99041.63
2022-11-13T06:02:22.622Z,99078.75
2022-11-13T06:05:11.045Z,99059.38
2022-11-13T06:07:57.635Z,99100.88
2022-11-13T06:10:44.890Z,99132.72
2022-11-13T06:13:32.392Z,99101.94
2022-11-13T06:16:20.508Z,99108.84
2022-11-13T06:19:10.475Z,99101.19
2022-11-13T06:21:58.560Z,99121.75
2022-11-13T06:24:45.350Z,99120.91
2022-11-13T06:27:35.504Z,99071.97
2022-11-13T06:30:22.825Z,99097.72
2022-11-13T06:33:09.968Z,99119.19
2022-11-13T06:35:56.993Z,99126.06
2022-11-13T06:38:45.321Z,99131.19
2022-11-13T06:41:44.014Z,99156.94
2022-11-13T06:44:34.366Z,99162.94
2022-11-13T06:47:28.239Z,99152.63
2022-11-13T06:50:31.007Z,99157.78
2022-11-13T06:53:18.621Z,99172.38
2022-11-13T06:56:08.354Z,99175.81
2022-11-13T06:58:56.027Z,99187.81
2022-11-13T07:01:43.022Z,99207.53
2022-11-13T07:04:29.784Z,99183.53
2022-11-13T07:07:17.002Z,99196.41
2022-11-13T07:10:04.058Z,99211.00
2022-11-13T07:12:54.650Z,99203.25
2022-11-13T07:15:41.760Z,99182.63
2022-11-13T07:18:29.123Z,99192.13
2022-11-13T07:21:15.841Z,99205.84
2022-11-13T07:24:02.720Z,99206.72
2022-11-13T07:26:51.801Z,99200.69
2022-11-13T07:29:40.354Z,99199.84
2022-11-13T07:32:26.991Z,99204.13
2022-11-13T07:35:14.512Z,99204.13
2022-11-13T07:38:01.497Z,99198.97
2022-11-13T07:40:48.277Z,99221.31
2022-11-13T07:43:35.294Z,99191.25
2022-11-13T07:46:25.967Z,99209.25
2022-11-13T07:49:12.714Z,99204.13
2022-11-13T07:51:59.758Z,99209.25
2022-11-13T07:54:46.408Z,99230.69
2022-11-13T07:57:33.790Z,99191.19
2022-11-13T08:00:21.032Z,99229.88
2022-11-13T08:03:11.379Z,99193.81
2022-11-13T08:06:11.287Z,99243.59
2022-11-13T08:09:00.244Z,99225.53
2022-11-13T08:11:47.418Z,99232.41
2022-11-13T08:14:34.264Z,99216.97
2022-11-13T08:17:22.609Z,99223.88
2022-11-13T08:20:12.294Z,99244.44
2022-11-13T08:22:59.487Z,99246.13
2022-11-13T08:25:46.249Z,99229.81
2022-11-13T08:28:33.447Z,99235.84
2022-11-13T08:31:20.728Z,99249.56
2022-11-13T08:34:07.640Z,99224.72
2022-11-13T08:36:56.060Z,99274.47
2022-11-13T08:39:42.964Z,99236.72
2022-11-13T08:42:31.780Z,99257.31
2022-11-13T08:45:19.242Z,99256.47
2022-11-13T08:48:07.243Z,99259.88
2022-11-13T08:50:54.621Z,99271.91
2022-11-13T08:53:42.636Z,99265.84
2022-11-13T08:56:29.305Z,99269.28
2022-11-13T08:59:17.136Z,99270.13
2022-11-13T09:02:03.914Z,99259.78
2022-11-13T09:04:51.044Z,99275.28
2022-11-13T09:07:38.191Z,99271.81
2022-11-13T09:10:26.764Z,99242.66
2022-11-13T09:13:13.828Z,99276.16
2022-11-13T09:16:00.855Z,99273.53
2022-11-13T09:18:50.502Z,99219.47
2022-11-13T09:21:37.849Z,99264.09
2022-11-13T09:24:24.817Z,99272.69
2022-11-13T09:27:13.694Z,99270.13
2022-11-13T09:30:00.520Z,99263.28
2022-11-13T09:32:47.848Z,99271.78
2022-11-13T09:35:37.779Z,99268.38
2022-11-13T09:38:25.034Z,99294.16
2022-11-13T09:41:13.498Z,99313.91
2022-11-13T09:44:04.045Z,99318.16
2022-11-13T09:46:52.871Z,99306.16
2022-11-13T09:49:42.968Z,99319.06
2022-11-13T09:52:37.118Z,99337.97
2022-11-13T09:55:27.443Z,99306.97
2022-11-13T09:58:21.879Z,99332.78
2022-11-13T10:01:16.246Z,99338.78
2022-11-13T10:04:08.914Z,99348.28
2022-11-13T10:07:22.797Z,99356.88
2022-11-13T10:10:28.316Z,99351.69
2022-11-13T10:13:19.116Z,99350.78
2022-11-13T10:16:11.243Z,99350.00
2022-11-13T10:19:06.939Z,99321.72
2022-11-13T10:22:26.015Z,99372.41
2022-11-13T10:25:13.081Z,99380.97
2022-11-13T10:28:11.226Z,99410.16
2022-11-13T10:31:53.721Z,99452.19
2022-11-13T10:34:43.140Z,99418.59
2022-11-13T10:37:45.448Z,99430.69
2022-11-13T10:40:34.881Z,99426.38
2022-11-13T10:43:23.534Z,99427.28
2022-11-13T10:46:20.416Z,99442.75
2022-11-13T10:49:13.852Z,99342.13
2022-11-13T10:52:07.048Z,99428.13
2022-11-13T10:55:15.989Z,99438.44
2022-11-13T10:58:04.403Z,99434.97
2022-11-13T11:00:52.706Z,99418.63
2022-11-13T11:03:50.135Z,99449.53
2022-11-13T11:07:17.707Z,99434.09
2022-11-13T11:10:06.317Z,99430.66
2022-11-13T11:12:54.885Z,99421.22
2022-11-13T11:15:44.912Z,99447.81
2022-11-13T11:18:34.865Z,99435.84
2022-11-13T11:21:24.072Z,99422.97
2022-11-13T11:24:15.710Z,99441.00
2022-11-13T11:27:07.504Z,99459.91
2022-11-13T11:30:02.616Z,99463.34
2022-11-13T11:32:54.752Z,99471.09
2022-11-13T11:35:45.323Z,99484.84
2022-11-13T11:38:35.250Z,99486.59
2022-11-13T11:41:27.613Z,99488.28
2022-11-13T11:44:22.363Z,99428.16
2022-11-13T11:47:16.022Z,99465.94
2022-11-13T11:50:03.434Z,99450.41
2022-11-13T11:52:58.608Z,99509.66
2022-11-13T11:55:55.935Z,99507.09
2022-11-13T11:59:12.225Z,99510.53
2022-11-13T12:02:32.198Z,99507.13
2022-11-13T12:05:24.100Z,99506.31
2022-11-13T12:08:18.616Z,99527.75
2022-11-13T12:11:12.993Z,99542.34
2022-11-13T12:14:09.979Z,99546.63
2022-11-13T12:17:16.460Z,99519.16
2022-11-13T12:20:16.416Z,99534.59
2022-11-13T12:23:10.088Z,99504.53
2022-11-13T12:26:03.067Z,99524.28
2022-11-13T12:28:53.559Z,99504.47
2022-11-13T12:31:49.988Z,99516.53
2022-11-13T12:34:42.521Z,99530.25
2022-11-13T12:37:37.825Z,99552.63
2022-11-13T12:40:30.459Z,99576.69
2022-11-13T12:43:32.719Z,99587.00
2022-11-13T12:46:19.798Z,99574.94
2022-11-13T12:49:22.827Z,99531.03
2022-11-13T12:52:20.644Z,99623.81
2022-11-13T12:55:26.561Z,99573.09
2022-11-13T12:58:21.421Z,99604.06
2022-11-13T13:01:16.354Z,99587.69
2022-11-13T13:04:28.482Z,99621.16
2022-11-13T13:07:26.122Z,99631.47
2022-11-13T13:10:19.141Z,99599.66
2022-11-13T13:13:11.724Z,99612.41
2022-11-13T13:16:02.768Z,99639.09
2022-11-13T13:18:49.656Z,99642.47
2022-11-13T13:21:44.824Z,99669.03
2022-11-13T13:24:35.141Z,99650.97
2022-11-13T13:27:25.705Z,99678.41
2022-11-13T13:30:22.186Z,99663.84
2022-11-13T13:33:21.722Z,99666.41
2022-11-13T13:36:18.105Z,99657.75
2022-11-13T13:39:13.253Z,99648.34
2022-11-13T13:42:14.757Z,99634.44
2022-11-13T13:45:15.093Z,99704.81
2022-11-13T13:48:02.360Z,99686.78
2022-11-13T13:50:50.855Z,99709.84
2022-11-13T13:53:37.765Z,99693.47
2022-11-13T13:56:26.582Z,99705.53
2022-11-13T13:59:16.989Z,99704.63
2022-11-13T14:02:16.029Z,99699.50
2022-11-13T14:05:02.879Z,99662.53
2022-11-13T14:07:49.846Z,99702.06
2022-11-13T14:10:37.771Z,99717.50
2022-11-13T14:13:25.831Z,99714.03
2022-11-13T14:16:14.134Z,99700.19
2022-11-13T14:19:05.751Z,99714.03
2022-11-13T14:21:54.671Z,99645.84
2022-11-13T14:24:47.721Z,99709.72
2022-11-13T14:27:34.860Z,99717.44
2022-11-13T14:30:24.911Z,99708.88
2022-11-13T14:33:12.966Z,99726.72
2022-11-13T14:36:01.581Z,99724.38
2022-11-13T14:38:52.161Z,99766.28
2022-11-13T14:41:42.941Z,99768.94
2022-11-13T14:44:32.366Z,99770.66
2022-11-13T14:47:25.505Z,99768.91
2022-11-13T14:50:22.284Z,99736.41
2022-11-13T14:53:11.695Z,99764.72
2022-11-13T14:56:01.509Z,99768.16
2022-11-13T14:58:49.046Z,99783.59
2022-11-13T15:01:36.009Z,99760.31
2022-11-13T15:04:23.035Z,99777.63
2022-11-13T15:07:34.713Z,99780.19
2022-11-13T15:10:25.062Z,99786.16
2022-11-13T15:13:13.752Z,99804.19
2022-11-13T15:16:01.183Z,99791.31
2022-11-13T15:18:52.401Z,99794.56
2022-11-13T15:21:39.301Z,99810.13
2022-11-13T15:24:25.976Z,99829.81
2022-11-13T15:27:17.024Z,99794.56
2022-11-13T15:30:04.694Z,99820.25
2022-11-13T15:32:54.137Z,99834.03
2022-11-13T15:35:42.146Z,99829.72
2022-11-13T15:38:28.848Z,99834.81
2022-11-13T15:41:16.498Z,99825.31
2022-11-13T15:44:11.232Z,99819.28
2022-11-13T15:46:58.480Z,99849.41
2022-11-13T15:49:56.678Z,99849.41
2022-11-13T15:52:53.561Z,99842.34
2022-11-13T15:55:41.392Z,99835.53
2022-11-13T15:58:33.377Z,99852.69
2022-11-13T16:01:23.093Z,99838.84
2022-11-13T16:04:13.123Z,99855.97
2022-11-13T16:07:00.132Z,99869.69
2022-11-13T16:09:47.211Z,99872.19
2022-11-13T16:12:34.368Z,99870.44
2022-11-13T16:15:21.757Z,99873.09
2022-11-13T16:18:14.177Z,99867.00
2022-11-13T16:21:00.713Z,99884.22
2022-11-13T16:23:47.484Z,99831.59
2022-11-13T16:26:34.591Z,99871.28
2022-11-13T16:29:22.958Z,99884.13
2022-11-13T16:32:24.483Z,99872.06
2022-11-13T16:35:15.832Z,99895.16
2022-11-13T16:38:02.499Z,99890.06
2022-11-13T16:40:49.025Z,99876.09
2022-11-13T16:43:38.318Z,99884.84
2022-11-13T16:46:27.987Z,99899.41
2022-11-13T16:49:19.133Z,99900.34
2022-11-13T16:52:07.797Z,99905.47
2022-11-13T16:54:54.666Z,99913.19
2022-11-13T16:57:41.648Z,99903.75
2022-11-13T17:00:28.551Z,99916.41
2022-11-13T17:03:15.384Z,99919.91
2022-11-13T17:06:18.627Z,99914.47
2022-11-13T17:09:06.894Z,99899.72
2022-11-13T17:11:53.830Z,99910.97
2022-11-13T17:14:41.133Z,99899.13
2022-11-13T17:17:28.242Z,99915.38
2022-11-13T17:20:17.517Z,99930.78
2022-11-13T17:23:04.382Z,99923.06
2022-11-13T17:25:57.397Z,99913.72
2022-11-13T17:28:44.255Z,99953.19
2022-11-13T17:31:31.545Z,99930.94
2022-11-13T17:34:18.891Z,99948.13
2022-11-13T17:37:06.002Z,99927.50
2022-11-13T17:39:53.030Z,99921.53
2022-11-13T17:42:43.441Z,99946.41
2022-11-13T17:45:30.365Z,99941.25
2022-11-13T17:48:17.382Z,99929.16
2022-11-13T17:51:06.947Z,99927.28
2022-11-13T17:53:54.228Z,99956.25
2022-11-13T17:56:42.939Z,99960.44
2022-11-13T17:59:31.126Z,99961.16
2022-11-13T18:02:18.109Z,99959.25
2022-11-13T18:05:05.742Z,99959.19
2022-11-13T18:07:52.643Z,99987.31
2022-11-13T18:10:40.011Z,99935.97
2022-11-13T18:13:27.775Z,99976.19
2022-11-13T18:16:19.096Z,99985.41
2022-11-13T18:19:07.132Z,99995.56
2022-11-13T18:21:53.844Z,99986.91
2022-11-13T18:24:40.918Z,99987.97
2022-11-13T18:27:30.947Z,99956.94
2022-11-13T18:30:18.391Z,99917.16
2022-11-13T18:33:06.679Z,99980.25
2022-11-13T18:35:56.746Z,99972.72
2022-11-13T18:38:44.522Z,99983.91
2022-11-13T18:41:32.635Z,99972.66
2022-11-13T18:44:19.901Z,99982.19
2022-11-13T18:47:06.953Z,99967.56
2022-11-13T18:49:58.663Z,99997.28
2022-11-13T18:52:46.055Z,99960.06
2022-11-13T18:55:32.997Z,99992.81
2022-11-13T18:58:20.296Z,99993.63
2022-11-13T19:01:18.845Z,99979.06
2022-11-13T19:04:25.280Z,99992.75
2022-11-13T19:07:13.433Z,99989.34
2022-11-13T19:10:00.190Z,99997.06
2022-11-13T19:12:47.312Z,100006.47
2022-11-13T19:15:36.318Z,99989.19
2022-11-13T19:18:23.341Z,99995.97
2022-11-13T19:21:14.929Z,99931.00
2022-11-13T19:24:14.887Z,100007.16
2022-11-13T19:27:02.626Z,100014.81
2022-11-13T19:29:49.711Z,100004.44
2022-11-13T19:32:36.693Z,100010.41
2022-11-13T19:35:23.955Z,100007.03
2022-11-13T19:38:11.008Z,100000.81
2022-11-13T19:40:59.331Z,100024.75
2022-11-13T19:43:46.661Z,99974.91
2022-11-13T19:46:34.321Z,99994.88
2022-11-13T19:49:21.381Z,99995.66
2022-11-13T19:52:08.417Z,100008.47
2022-11-13T19:54:55.701Z,100000.56
2022-11-13T19:57:46.147Z,99984.19
2022-11-13T20:00:33.426Z,100005.84
2022-11-13T20:03:20.517Z,99984.31
2022-11-13T20:06:08.224Z,100004.22
2022-11-13T20:08:55.483Z,100003.34
2022-11-13T20:11:42.568Z,100009.13
2022-11-13T20:14:34.444Z,100012.53
2022-11-13T20:17:24.922Z,99992.84
2022-11-13T20:20:12.807Z,100017.72
2022-11-13T20:22:59.408Z,100011.88
2022-11-13T20:25:52.876Z,99984.09
2022-11-13T20:28:40.110Z,99981.63
2022-11-13T20:31:30.075Z,100003.25
2022-11-13T20:34:17.232Z,100029.03
2022-11-13T20:37:04.482Z,100004.81
2022-11-13T20:39:52.199Z,100028.91
2022-11-13T20:42:39.555Z,100029.72
2022-11-13T20:45:27.622Z,100055.44
2022-11-13T20:48:16.309Z,100052.72
2022-11-13T20:51:08.184Z,100016.63
2022-11-13T20:53:56.006Z,100080.06
2022-11-13T20:56:43.661Z,100077.03
2022-11-13T20:59:31.320Z,100058.53
2022-11-13T21:02:18.739Z,100050.53
2022-11-13T21:05:08.587Z,100090.53
2022-11-13T21:07:56.458Z,100094.56
2022-11-13T21:10:44.320Z,100100.44
2022-11-13T21:13:31.772Z,100108.44
2022-11-13T21:16:19.314Z,100083.88
2022-11-13T21:19:06.023Z,100114.88
2022-11-13T21:21:54.662Z,100108.06
2022-11-13T21:24:41.479Z,100112.44
2022-11-13T21:27:28.515Z,100101.56
2022-11-13T21:30:16.218Z,100110.13
2022-11-13T21:33:03.472Z,100089.22
2022-11-13T21:35:50.494Z,100115.69
2022-11-13T21:38:39.166Z,100106.88
2022-11-13T21:41:27.320Z,100107.63
2022-11-13T21:44:14.562Z,100115.47
2022-11-13T21:47:02.015Z,100131.59
2022-11-13T21:49:49.178Z,100101.47
2022-11-13T21:52:36.412Z,100098.09
2022-11-13T21:55:24.424Z,100117.56
2022-11-13T21:58:11.426Z,100132.00
2022-11-13T22:00:58.634Z,100109.09
2022-11-13T22:03:45.783Z,100063.84
2022-11-13T22:06:36.211Z,100134.00
2022-11-13T22:09:24.260Z,100111.88
2022-11-13T22:12:12.318Z,100126.53
2022-11-13T22:14:59.140Z,100130.03
2022-11-13T22:17:46.198Z,100113.75
2022-11-13T22:20:33.639Z,100122.91
2022-11-13T22:23:20.666Z,100151.31
2022-11-13T22:26:09.325Z,100134.00
2022-11-13T22:28:59.882Z,100143.81
2022-11-13T22:31:46.834Z,100123.97
2022-11-13T22:34:33.949Z,100136.31
2022-11-13T22:37:21.050Z,100152.72
2022-11-13T22:40:09.837Z,100144.28
2022-11-13T22:42:56.905Z,100157.75
2022-11-13T22:45:45.411Z,100131.78
2022-11-13T22:48:32.734Z,100178.84
2022-11-13T22:51:21.049Z,100149.91
2022-11-13T22:54:10.102Z,100154.03
2022-11-13T22:56:56.799Z,100161.53
2022-11-13T22:59:43.135Z,100172.66
2022-11-13T23:02:33.880Z,100116.06
2022-11-13T23:05:20.800Z,100166.09
2022-11-13T23:08:07.941Z,100154.28
2022-11-13T23:10:54.839Z,100143.25
2022-11-13T23:13:42.597Z,100134.63
2022-11-13T23:16:30.283Z,100169.94
2022-11-13T23:19:18.508Z,100155.31
2022-11-13T23:22:05.317Z,100168.41
2022-11-13T23:24:51.972Z,100160.50
2022-11-13T23:27:38.791Z,100168.16
2022-11-13T23:30:25.822Z,100167.56
2022-11-13T23:33:12.939Z,100180.38
2022-11-13T23:36:01.272Z,100146.25
2022-11-13T23:38:47.803Z,100154.38
2022-11-13T23:41:34.431Z,100166.19
2022-11-13T23:44:21.201Z,100182.47
2022-11-13T23:47:08.307Z,100204.50
2022-11-13T23:49:55.002Z,100182.06
2022-11-13T23:52:43.283Z,100191.38
2022-11-13T23:55:30.221Z,100195.78
2022-11-13T23:58:17.885Z,100190.63
